This is the latest recevied weather packets stored in our database for station/object WP4NYS-13. If no packets are shown the sender has not sent any weather packets the latest 10 day(s).
| Time | Temp. | Humidity | Pressure | Rain* | Wind** | Luminosity | Snow |
|---|---|---|---|---|---|---|---|
| 1777133043 | 31.11° C | 41% | 1013.1 hPa | 0 mm | - | - | - |
| 1777132740 | 30.56° C | 42% | 1013 hPa | 0 mm | - | - | - |
| 1777132435 | 30.56° C | 43% | 1012.9 hPa | 0 mm | - | - | - |
| 1777132133 | 30° C | 44% | 1013.1 hPa | 0 mm | - | - | - |
| 1777131829 | 30° C | 44% | 1013.1 hPa | 0 mm | - | - | - |
| 1777131526 | 29.44° C | 46% | 1013.1 hPa | 0 mm | - | - | - |
| 1777131221 | 30° C | 44% | 1012.9 hPa | 0 mm | - | - | - |
| 1777130921 | 30° C | 45% | 1012.6 hPa | 0 mm | - | - | - |
| 1777130617 | 30° C | 44% | 1012.7 hPa | 0 mm | - | - | - |
| 1777130314 | 29.44° C | 44% | 1013 hPa | 0 mm | - | - | - |
| 1777130011 | 29.44° C | 46% | 1013 hPa | 0 mm | - | - | - |
| 1777129706 | 29.44° C | 45% | 1012.9 hPa | 0 mm | - | - | - |
| 1777129406 | 28.89° C | 45% | 1012.8 hPa | 0 mm | - | - | - |
| 1777129101 | 28.89° C | 47% | 1013.1 hPa | 0 mm | - | - | - |
| 1777128796 | 28.89° C | 47% | 1012.8 hPa | 0 mm | - | - | - |
| 1777128494 | 28.33° C | 47% | 1012.8 hPa | 0 mm | - | - | - |
| 1777128191 | 27.22° C | 53% | 1013 hPa | 0 mm | - | - | - |
| 1777127889 | 27.22° C | 55% | 1013 hPa | 0 mm | - | - | - |
| 1777127585 | 27.78° C | 52% | 1013.1 hPa | 0 mm | - | - | - |
| 1777127282 | 27.22° C | 56% | 1012.8 hPa | 0 mm | - | - | - |
| 1777126978 | 26.67° C | 57% | 1012.9 hPa | 0 mm | - | - | - |
| 1777126674 | 25.56° C | 60% | 1013 hPa | 0 mm | - | - | - |
| 1777126370 | 25.56° C | 60% | 1012.8 hPa | 0 mm | - | - | - |
| 1777126066 | 25° C | 60% | 1012.7 hPa | 0 mm | - | - | - |
| 1777125763 | 25° C | 64% | 1012.7 hPa | 0 mm | - | - | - |
* Rain latest hour (hover to see other rain measurements)
** Current wind speed in m/s (hover to see current wind gust speed)